Time;durP1;ratioP1;P1;durP2;ratioP2;P2;SDS_P1;SDS_P2;PMS_P1;PMS_P2;Temp;Humidity;BMP_temperature;BMP_pressure;BME280_temperature;BME280_humidity;BME280_pressure;Samples;Min_cycle;Max_cycle;Signal;HPM_P1;HPM_P2
2021/04/26 00:01:11;;;;;;;1.63;0.80;;;21.30;35.70;;;;;;5034813;28;20325;-53
2021/04/26 00:03:37;;;;;;;2.47;1.08;;;21.30;35.60;;;;;;5035253;28;20029;-53
2021/04/26 00:06:03;;;;;;;1.20;0.80;;;21.30;35.60;;;;;;5034637;28;20017;-50
2021/04/26 00:08:29;;;;;;;3.05;0.95;;;21.30;35.60;;;;;;5034898;28;20047;-53
2021/04/26 00:10:54;;;;;;;2.88;0.90;;;21.30;35.50;;;;;;5034429;28;20030;-51
2021/04/26 00:13:20;;;;;;;1.60;0.75;;;21.20;35.50;;;;;;5035868;28;20029;-55
2021/04/26 00:15:46;;;;;;;2.15;0.90;;;21.20;35.40;;;;;;5038737;28;20033;-49
2021/04/26 00:18:13;;;;;;;2.05;0.98;;;21.20;35.40;;;;;;5038555;28;20022;-50
2021/04/26 00:20:39;;;;;;;1.92;0.90;;;21.20;35.40;;;;;;5038844;28;20061;-51
2021/04/26 00:23:05;;;;;;;1.80;0.80;;;21.20;35.30;;;;;;5038648;28;20022;-51
2021/04/26 00:25:31;;;;;;;1.58;0.82;;;21.20;35.30;;;;;;5038070;28;20033;-50
2021/04/26 00:27:57;;;;;;;2.50;0.77;;;21.20;35.30;;;;;;5038684;28;20056;-53
2021/04/26 00:30:24;;;;;;;1.50;0.85;;;21.10;35.30;;;;;;5038298;28;20021;-49
2021/04/26 00:32:51;;;;;;;1.58;0.70;;;21.10;35.20;;;;;;5038146;28;20098;-54
2021/04/26 00:35:17;;;;;;;2.83;1.17;;;21.10;35.20;;;;;;5037864;28;20504;-51
2021/04/26 00:37:43;;;;;;;2.55;1.20;;;21.10;35.20;;;;;;5037765;28;20030;-54
2021/04/26 00:40:10;;;;;;;3.20;1.05;;;21.10;35.20;;;;;;5038576;28;20091;-51
2021/04/26 00:42:36;;;;;;;1.90;0.85;;;21.00;35.10;;;;;;5038372;28;20033;-49
2021/04/26 00:45:08;;;;;;;1.70;0.80;;;21.10;35.20;;;;;;5038236;28;20112;-52
2021/04/26 00:47:34;;;;;;;1.35;0.70;;;21.00;35.10;;;;;;5038065;28;20025;-48
2021/04/26 00:49:59;;;;;;;2.45;0.60;;;21.00;35.10;;;;;;5037961;28;20494;-50
2021/04/26 00:52:25;;;;;;;1.95;1.05;;;21.00;35.10;;;;;;5037684;28;20083;-53
2021/04/26 00:54:50;;;;;;;1.50;0.68;;;20.90;35.00;;;;;;5037688;28;20041;-48
2021/04/26 00:57:16;;;;;;;2.65;0.80;;;21.00;35.00;;;;;;5038193;28;20033;-53
2021/04/26 00:59:42;;;;;;;1.48;0.85;;;20.90;35.00;;;;;;5037667;28;20025;-50
2021/04/26 01:02:08;;;;;;;2.33;1.02;;;20.90;34.90;;;;;;5020287;28;20336;-49
2021/04/26 01:04:34;;;;;;;1.58;0.75;;;20.90;34.90;;;;;;5038026;28;20030;-54
2021/04/26 01:07:00;;;;;;;1.95;0.80;;;20.90;34.90;;;;;;5037770;28;20361;-52
2021/04/26 01:09:25;;;;;;;2.38;0.80;;;20.90;34.90;;;;;;5037477;28;20060;-49
2021/04/26 01:12:20;;;;;;;4.15;1.50;;;20.90;35.20;;;;;;5037815;28;20022;-50
2021/04/26 01:15:03;;;;;;;;;;;20.90;34.90;;;;;;5028632;28;20076;-53
2021/04/26 01:17:35;;;;;;;2.40;0.88;;;20.80;34.80;;;;;;5037492;28;20131;-52
2021/04/26 01:20:46;;;;;;;2.35;0.88;;;20.80;34.80;;;;;;5037352;28;20038;-50
2021/04/26 01:23:14;;;;;;;1.10;0.75;;;20.80;34.80;;;;;;5011791;28;20060;-48
2021/04/26 01:25:42;;;;;;;2.03;0.80;;;20.70;34.80;;;;;;5036346;28;20045;-53
2021/04/26 01:28:39;;;;;;;2.88;0.85;;;20.70;34.80;;;;;;5037271;28;20368;-50
2021/04/26 01:31:16;;;;;;;3.20;1.13;;;20.70;34.80;;;;;;5037382;28;20026;-54
2021/04/26 01:33:48;;;;;;;1.25;0.80;;;20.70;34.80;;;;;;5036953;28;20063;-54
2021/04/26 01:36:17;;;;;;;2.35;1.30;;;20.70;34.80;;;;;;5036900;28;20040;-48
2021/04/26 01:38:45;;;;;;;2.63;0.88;;;20.70;34.80;;;;;;5036861;28;20094;-53
2021/04/26 01:41:11;;;;;;;2.65;1.25;;;20.60;34.70;;;;;;5036918;28;20029;-51
2021/04/26 01:43:38;;;;;;;1.42;0.73;;;20.70;34.70;;;;;;5037330;28;20044;-50
2021/04/26 01:46:09;;;;;;;1.45;0.77;;;20.60;34.70;;;;;;5037058;28;20029;-51
2021/04/26 01:48:38;;;;;;;1.33;0.75;;;20.70;34.70;;;;;;5036663;28;20025;-55
2021/04/26 01:51:06;;;;;;;1.00;0.57;;;20.60;34.70;;;;;;5037203;28;20432;-51
2021/04/26 01:53:32;;;;;;;1.48;0.80;;;20.60;34.60;;;;;;5036469;28;20347;-54
2021/04/26 01:56:04;;;;;;;2.38;1.23;;;20.60;34.60;;;;;;5036080;28;20033;-49
2021/04/26 01:58:31;;;;;;;2.70;0.88;;;20.60;34.60;;;;;;5036572;28;20017;-54
2021/04/26 02:00:58;;;;;;;2.55;1.00;;;20.60;34.60;;;;;;5036480;28;20432;-49
2021/04/26 02:03:26;;;;;;;4.05;0.88;;;20.50;34.50;;;;;;5036770;28;20036;-53
2021/04/26 02:05:54;;;;;;;2.10;0.82;;;20.60;34.60;;;;;;5036781;28;20031;-51
2021/04/26 02:08:20;;;;;;;2.72;0.90;;;20.50;34.50;;;;;;5036601;28;20035;-51
2021/04/26 02:10:46;;;;;;;1.95;0.80;;;20.50;34.50;;;;;;5036713;28;20032;-53
2021/04/26 02:13:21;;;;;;;1.10;0.90;;;20.50;34.50;;;;;;5036055;28;20025;-51
2021/04/26 02:15:48;;;;;;;1.63;0.68;;;20.50;34.50;;;;;;5036186;28;20033;-52
2021/04/26 02:18:14;;;;;;;2.40;1.05;;;20.40;34.40;;;;;;5036490;28;20055;-52
2021/04/26 02:20:39;;;;;;;2.00;0.70;;;20.50;34.50;;;;;;5036596;28;20487;-53
2021/04/26 02:23:05;;;;;;;3.03;1.20;;;20.50;34.50;;;;;;5035843;28;20448;-52
2021/04/26 02:25:31;;;;;;;2.17;0.90;;;20.50;34.50;;;;;;5036025;28;20033;-54
2021/04/26 02:27:57;;;;;;;1.75;0.80;;;20.40;34.40;;;;;;5035667;28;20410;-54
2021/04/26 02:30:22;;;;;;;1.95;0.70;;;20.40;34.40;;;;;;5035958;28;20025;-54
2021/04/26 02:32:59;;;;;;;2.25;0.70;;;20.40;34.40;;;;;;5035829;28;20029;-52
2021/04/26 02:35:34;;;;;;;1.55;0.73;;;20.40;34.40;;;;;;5035541;28;20465;-51
2021/04/26 02:38:07;;;;;;;1.50;0.90;;;20.40;34.40;;;;;;5034676;28;20032;-56
2021/04/26 02:40:53;;;;;;;2.80;0.90;;;20.40;34.40;;;;;;5035725;28;20340;-53
2021/04/26 02:43:20;;;;;;;2.10;0.80;;;20.40;34.40;;;;;;5035683;28;20034;-54
2021/04/26 02:45:57;;;;;;;3.38;0.80;;;20.30;34.40;;;;;;5036091;28;20116;-56
2021/04/26 02:48:23;;;;;;;1.98;0.68;;;20.40;34.40;;;;;;5036201;28;20014;-54
2021/04/26 02:50:54;;;;;;;3.35;0.77;;;20.30;34.30;;;;;;5035153;28;20072;-55
2021/04/26 02:53:24;;;;;;;0.82;0.70;;;20.30;34.30;;;;;;5035881;28;20022;-50
2021/04/26 02:55:52;;;;;;;3.38;1.05;;;20.30;34.30;;;;;;5035398;28;20112;-53
2021/04/26 02:58:20;;;;;;;1.65;0.70;;;20.30;34.30;;;;;;5035442;28;20021;-55
2021/04/26 03:00:46;;;;;;;3.42;0.90;;;20.30;34.30;;;;;;5035489;28;20022;-51
2021/04/26 03:03:14;;;;;;;1.65;0.70;;;20.30;34.30;;;;;;5035575;28;20055;-49
2021/04/26 03:05:42;;;;;;;3.40;0.90;;;20.20;34.20;;;;;;5035805;28;20057;-56
2021/04/26 03:08:09;;;;;;;1.35;0.77;;;20.20;34.20;;;;;;5035456;28;20040;-51
2021/04/26 03:10:34;;;;;;;1.55;0.55;;;20.30;34.30;;;;;;5035473;28;20029;-52
2021/04/26 03:13:00;;;;;;;1.67;0.80;;;20.20;34.20;;;;;;5035132;28;20029;-52
2021/04/26 03:15:28;;;;;;;1.92;0.80;;;20.20;34.20;;;;;;5017620;28;20036;-51
2021/04/26 03:17:54;;;;;;;2.88;0.90;;;20.20;34.20;;;;;;5034991;28;20025;-51
2021/04/26 03:20:21;;;;;;;2.95;0.90;;;20.20;34.20;;;;;;5035169;28;20447;-54
2021/04/26 03:22:48;;;;;;;3.08;0.80;;;20.20;34.20;;;;;;5035458;28;20466;-55
2021/04/26 03:25:17;;;;;;;1.70;0.73;;;20.10;34.20;;;;;;5035388;28;20035;-56
2021/04/26 03:27:46;;;;;;;1.38;0.73;;;20.10;34.20;;;;;;5035172;28;20338;-61
2021/04/26 03:30:14;;;;;;;3.75;0.95;;;20.10;34.20;;;;;;5035218;28;20026;-51
2021/04/26 03:32:42;;;;;;;5.03;0.98;;;20.10;35.00;;;;;;5034538;28;20033;-50
2021/04/26 03:35:11;;;;;;;2.83;0.88;;;20.10;34.90;;;;;;5035177;28;20037;-53
2021/04/26 03:37:38;;;;;;;3.08;0.90;;;20.10;34.80;;;;;;5035458;28;20017;-51
2021/04/26 03:40:04;;;;;;;1.85;0.73;;;20.10;34.80;;;;;;5035248;28;20424;-55
2021/04/26 03:42:30;;;;;;;2.65;1.00;;;20.10;34.70;;;;;;5035277;28;20041;-52
2021/04/26 03:44:55;;;;;;;2.83;0.93;;;20.00;34.60;;;;;;5035129;28;20025;-49
2021/04/26 03:47:21;;;;;;;3.03;0.70;;;20.10;34.60;;;;;;5035139;28;20432;-50
2021/04/26 03:49:46;;;;;;;2.20;0.80;;;20.00;34.50;;;;;;5034381;28;20407;-53
2021/04/26 03:52:12;;;;;;;3.03;1.00;;;20.00;34.50;;;;;;5035195;28;20032;-51
2021/04/26 03:54:38;;;;;;;1.15;0.70;;;20.00;34.50;;;;;;5034696;28;20025;-48
2021/04/26 03:57:04;;;;;;;1.98;0.85;;;20.00;34.50;;;;;;5034748;28;20029;-51
2021/04/26 03:59:29;;;;;;;1.98;0.93;;;20.00;34.50;;;;;;5034726;28;20108;-50
2021/04/26 04:01:55;;;;;;;2.67;0.98;;;20.00;34.40;;;;;;5035012;28;20164;-51
2021/04/26 04:04:21;;;;;;;2.38;0.93;;;20.00;34.50;;;;;;5034838;28;20061;-51
2021/04/26 04:06:47;;;;;;;2.40;1.15;;;20.00;34.40;;;;;;5034588;28;20029;-49
2021/04/26 04:09:14;;;;;;;3.42;0.68;;;19.90;34.40;;;;;;5017184;28;20473;-50
2021/04/26 04:11:40;;;;;;;3.22;0.73;;;19.90;34.30;;;;;;5035117;28;20017;-49
2021/04/26 04:14:06;;;;;;;2.38;0.90;;;20.00;34.40;;;;;;5034362;28;20034;-49
2021/04/26 04:16:32;;;;;;;1.50;0.82;;;19.90;34.30;;;;;;5034638;28;20021;-55
2021/04/26 04:18:58;;;;;;;2.13;0.85;;;19.90;34.30;;;;;;5034813;28;20351;-52
2021/04/26 04:21:24;;;;;;;2.80;0.75;;;19.90;34.30;;;;;;5034795;28;20415;-52
2021/04/26 04:23:50;;;;;;;0.82;0.60;;;19.90;34.30;;;;;;5034249;28;20040;-55
2021/04/26 04:26:16;;;;;;;1.20;0.52;;;19.90;34.40;;;;;;5034595;28;20033;-53
2021/04/26 04:28:42;;;;;;;2.22;0.70;;;19.90;34.30;;;;;;5034519;28;20055;-53
2021/04/26 04:31:08;;;;;;;1.88;1.02;;;19.80;34.30;;;;;;5034405;28;20467;-54
2021/04/26 04:33:34;;;;;;;1.45;0.95;;;19.80;34.20;;;;;;5017281;28;20112;-53
2021/04/26 04:36:00;;;;;;;1.77;0.63;;;19.80;34.20;;;;;;5034515;28;20044;-52
2021/04/26 04:38:26;;;;;;;1.25;0.75;;;19.80;34.20;;;;;;5034274;28;20026;-52
2021/04/26 04:40:55;;;;;;;3.95;0.82;;;19.80;34.20;;;;;;5034177;28;20086;-53
2021/04/26 04:43:21;;;;;;;5.43;1.13;;;19.80;34.20;;;;;;5034533;28;20013;-54
2021/04/26 04:45:47;;;;;;;2.00;0.80;;;19.80;34.20;;;;;;5034390;28;20087;-54
2021/04/26 04:48:13;;;;;;;2.35;0.80;;;19.80;34.20;;;;;;5034448;28;20053;-50
2021/04/26 04:50:38;;;;;;;3.25;1.10;;;19.80;34.20;;;;;;5034213;28;20462;-55
2021/04/26 04:53:04;;;;;;;2.92;1.10;;;19.80;34.20;;;;;;5034454;28;20432;-53
2021/04/26 04:55:30;;;;;;;1.23;0.73;;;19.80;34.20;;;;;;5034318;28;20041;-52
2021/04/26 04:57:55;;;;;;;2.13;0.90;;;19.70;34.20;;;;;;5034117;28;20475;-50
2021/04/26 05:00:22;;;;;;;0.90;0.65;;;19.70;34.20;;;;;;5035034;28;20120;-50
2021/04/26 05:02:47;;;;;;;1.60;0.70;;;19.70;34.20;;;;;;5037678;28;20028;-55
2021/04/26 05:05:13;;;;;;;2.25;0.80;;;19.70;34.10;;;;;;5038156;28;20034;-51
2021/04/26 05:07:38;;;;;;;1.30;0.70;;;19.70;34.20;;;;;;5038047;28;20061;-56
2021/04/26 05:10:05;;;;;;;3.72;0.93;;;19.70;34.20;;;;;;5037587;28;20032;-50
2021/04/26 05:12:31;;;;;;;0.95;0.60;;;19.70;34.20;;;;;;5037553;28;20033;-54
2021/04/26 05:14:56;;;;;;;1.85;0.70;;;19.70;34.90;;;;;;5037346;28;20132;-54
2021/04/26 05:17:22;;;;;;;1.95;0.82;;;19.70;34.20;;;;;;5037550;28;20018;-54
2021/04/26 05:19:47;;;;;;;4.78;1.15;;;19.70;34.40;;;;;;5037048;28;20029;-51
2021/04/26 05:22:13;;;;;;;4.43;0.65;;;19.70;34.70;;;;;;5036541;28;20037;-47
2021/04/26 05:24:40;;;;;;;2.55;0.70;;;19.70;34.70;;;;;;5037140;28;20078;-51
2021/04/26 05:27:06;;;;;;;2.53;0.90;;;19.70;34.90;;;;;;5037037;28;20100;-48
2021/04/26 05:29:32;;;;;;;1.55;0.70;;;19.70;35.00;;;;;;5037336;28;20021;-50
2021/04/26 05:31:57;;;;;;;2.55;1.25;;;19.70;35.00;;;;;;5037359;28;20060;-49
2021/04/26 05:34:23;;;;;;;14.88;0.90;;;19.70;35.50;;;;;;5037077;28;20030;-47
2021/04/26 05:36:48;;;;;;;3.30;0.98;;;19.70;35.60;;;;;;5036864;28;20033;-51
2021/04/26 05:39:14;;;;;;;7.07;1.10;;;19.70;35.60;;;;;;5036911;28;20105;-49
2021/04/26 05:41:40;;;;;;;6.15;0.90;;;19.70;35.70;;;;;;5036853;28;20444;-49
2021/04/26 05:44:05;;;;;;;8.35;0.90;;;19.70;35.70;;;;;;5037182;28;20464;-52
2021/04/26 05:46:31;;;;;;;5.10;1.08;;;19.80;35.80;;;;;;5037042;28;20432;-47
2021/04/26 05:48:56;;;;;;;4.43;1.05;;;19.80;35.80;;;;;;5036529;28;20479;-50
2021/04/26 05:51:23;;;;;;;5.53;1.00;;;19.80;35.80;;;;;;5035576;28;20022;-50
2021/04/26 05:53:48;;;;;;;4.28;0.98;;;19.80;35.80;;;;;;5036368;28;20433;-48
2021/04/26 05:56:14;;;;;;;3.55;0.77;;;19.90;35.80;;;;;;5036488;28;20046;-46
2021/04/26 05:58:39;;;;;;;2.92;0.90;;;19.90;35.80;;;;;;5036828;28;20116;-47
2021/04/26 06:01:05;;;;;;;2.13;0.70;;;19.90;35.80;;;;;;5036593;28;20028;-47
2021/04/26 06:03:31;;;;;;;1.85;0.60;;;20.00;35.90;;;;;;5018697;28;20115;-49
2021/04/26 06:05:57;;;;;;;1.85;0.65;;;20.00;35.80;;;;;;5036404;28;20424;-49
2021/04/26 06:08:23;;;;;;;3.10;0.50;;;20.00;35.80;;;;;;5036544;28;20022;-48
2021/04/26 06:10:49;;;;;;;2.35;0.88;;;20.10;35.90;;;;;;5035810;28;20479;-47
2021/04/26 06:13:15;;;;;;;5.55;1.30;;;20.10;36.20;;;;;;5036573;28;20025;-47
2021/04/26 06:15:40;;;;;;;6.35;0.77;;;20.10;36.30;;;;;;5036289;28;20098;-48
2021/04/26 06:18:12;;;;;;;3.38;1.23;;;20.10;36.20;;;;;;5036040;28;20037;-51
2021/04/26 06:20:42;;;;;;;3.78;0.82;;;20.10;36.20;;;;;;5018701;28;20021;-48
2021/04/26 06:23:08;;;;;;;2.65;0.65;;;20.10;36.20;;;;;;5036181;28;20033;-48
2021/04/26 06:25:36;;;;;;;12.27;1.30;;;20.20;36.30;;;;;;5036401;28;20116;-50
2021/04/26 06:28:02;;;;;;;7.65;0.90;;;20.20;36.40;;;;;;5035928;28;20356;-46
2021/04/26 06:30:28;;;;;;;3.33;0.70;;;20.20;36.40;;;;;;5044755;28;20031;-46
2021/04/26 06:32:54;;;;;;;5.47;1.02;;;20.20;36.40;;;;;;5055995;28;20099;-50
2021/04/26 06:35:19;;;;;;;7.90;0.98;;;20.30;36.40;;;;;;5055421;28;20155;-48
2021/04/26 06:37:45;;;;;;;12.15;1.90;;;20.30;36.40;;;;;;5038149;28;20095;-49
2021/04/26 06:40:11;;;;;;;6.68;1.20;;;20.30;36.40;;;;;;5055440;28;20052;-47
2021/04/26 06:42:37;;;;;;;2.75;0.90;;;20.30;36.40;;;;;;5051852;28;20032;-49
2021/04/26 06:45:03;;;;;;;5.78;1.30;;;20.30;36.40;;;;;;5035618;28;20383;-46
2021/04/26 06:47:29;;;;;;;6.47;1.05;;;20.30;36.40;;;;;;5035766;28;20159;-46
2021/04/26 06:49:54;;;;;;;6.13;0.90;;;20.40;36.60;;;;;;5035256;28;20049;-49
2021/04/26 06:52:20;;;;;;;10.75;0.90;;;20.30;36.50;;;;;;5036174;28;20436;-55
2021/04/26 06:54:46;;;;;;;3.67;0.80;;;20.40;36.70;;;;;;5035140;28;20345;-46
2021/04/26 06:57:13;;;;;;;4.32;1.23;;;20.40;36.70;;;;;;5035318;28;20018;-46
2021/04/26 06:59:38;;;;;;;4.47;0.80;;;20.40;36.80;;;;;;5035335;28;20025;-49
2021/04/26 07:02:04;;;;;;;9.68;1.17;;;20.50;36.90;;;;;;5035369;28;20083;-46
2021/04/26 07:04:29;;;;;;;4.97;0.80;;;20.50;36.80;;;;;;5034834;28;20017;-46
2021/04/26 07:06:55;;;;;;;4.22;0.73;;;20.50;36.80;;;;;;5017449;28;20492;-46
2021/04/26 07:09:20;;;;;;;3.05;1.00;;;20.50;36.80;;;;;;5034752;28;20021;-49
2021/04/26 07:11:46;;;;;;;5.25;0.93;;;20.50;36.80;;;;;;5034917;28;20055;-45
2021/04/26 07:14:12;;;;;;;5.72;0.82;;;20.50;36.70;;;;;;5034488;28;20029;-47
2021/04/26 07:16:37;;;;;;;1.52;0.68;;;20.50;36.80;;;;;;5035052;28;20025;-47
2021/04/26 07:19:03;;;;;;;4.97;1.08;;;20.50;36.80;;;;;;5035263;28;20030;-49
2021/04/26 07:21:28;;;;;;;5.80;1.08;;;20.60;36.90;;;;;;5035148;28;20032;-46
2021/04/26 07:23:54;;;;;;;3.72;1.05;;;20.50;36.80;;;;;;5034709;28;20104;-49
2021/04/26 07:26:19;;;;;;;5.85;1.10;;;20.50;36.80;;;;;;5034937;28;20039;-47
2021/04/26 07:28:45;;;;;;;3.30;0.90;;;20.50;36.80;;;;;;5035131;28;20132;-47
2021/04/26 07:31:11;;;;;;;3.92;0.90;;;20.50;36.90;;;;;;5034980;28;20032;-50
2021/04/26 07:33:36;;;;;;;1.73;0.70;;;20.60;37.00;;;;;;5034959;28;20032;-47
2021/04/26 07:36:02;;;;;;;7.20;0.90;;;20.60;36.90;;;;;;5035218;28;20033;-50
2021/04/26 07:38:28;;;;;;;4.03;1.38;;;20.60;37.00;;;;;;5034951;28;20030;-49
2021/04/26 07:40:53;;;;;;;4.65;0.70;;;20.50;36.90;;;;;;5034306;28;20345;-46
2021/04/26 07:43:19;;;;;;;2.25;1.17;;;20.60;37.00;;;;;;5034807;28;20036;-46
2021/04/26 07:45:44;;;;;;;3.15;0.68;;;20.60;37.00;;;;;;5034769;28;20064;-46
2021/04/26 07:48:10;;;;;;;5.13;0.93;;;20.60;37.10;;;;;;5034460;28;20038;-50
2021/04/26 07:50:36;;;;;;;1.35;0.60;;;20.60;37.00;;;;;;5034780;28;20440;-47
2021/04/26 07:53:01;;;;;;;1.95;0.90;;;20.60;37.00;;;;;;5034442;28;20069;-48
2021/04/26 07:55:27;;;;;;;3.13;0.80;;;20.60;37.00;;;;;;5034940;28;20032;-48
2021/04/26 07:57:54;;;;;;;2.08;0.73;;;20.60;37.00;;;;;;5034313;28;20030;-46
2021/04/26 08:00:20;;;;;;;1.80;0.80;;;20.60;36.90;;;;;;5034640;28;20322;-47
2021/04/26 08:02:46;;;;;;;1.63;0.60;;;20.60;36.90;;;;;;5034655;28;20057;-50
2021/04/26 08:05:12;;;;;;;2.83;0.68;;;20.60;36.90;;;;;;5034747;28;20459;-48
2021/04/26 08:07:38;;;;;;;2.55;0.75;;;20.70;37.00;;;;;;5034310;28;20022;-51
2021/04/26 08:10:04;;;;;;;1.10;0.50;;;20.70;37.10;;;;;;5034607;28;20021;-47
2021/04/26 08:12:30;;;;;;;3.70;0.82;;;20.70;37.10;;;;;;5034688;28;20029;-63
2021/04/26 08:14:55;;;;;;;5.47;1.08;;;20.70;37.10;;;;;;5034082;28;20026;-47
2021/04/26 08:17:21;;;;;;;1.33;0.90;;;20.70;37.10;;;;;;5034516;28;20344;-51
2021/04/26 08:19:46;;;;;;;6.43;1.00;;;20.70;37.00;;;;;;5034644;28;20440;-47
2021/04/26 08:22:12;;;;;;;1.95;0.60;;;20.70;37.00;;;;;;5034450;28;20094;-46
2021/04/26 08:24:38;;;;;;;1.48;0.52;;;20.80;37.00;;;;;;5034282;28;20507;-48
2021/04/26 08:27:04;;;;;;;0.77;0.45;;;20.80;37.10;;;;;;5034421;28;20033;-48
2021/04/26 08:29:29;;;;;;;1.58;0.68;;;20.80;37.00;;;;;;5034715;28;20091;-48
2021/04/26 08:31:55;;;;;;;1.83;0.50;;;20.80;37.00;;;;;;5034881;28;20025;-49
2021/04/26 08:34:21;;;;;;;2.90;0.50;;;20.90;37.10;;;;;;5035380;28;20108;-50
2021/04/26 08:36:47;;;;;;;1.85;0.52;;;20.90;37.10;;;;;;5038050;28;20036;-48
2021/04/26 08:39:15;;;;;;;1.63;0.65;;;20.90;37.10;;;;;;5038208;28;20108;-48
2021/04/26 08:41:41;;;;;;;0.80;0.50;;;20.90;37.00;;;;;;5038216;28;20021;-52
2021/04/26 08:44:07;;;;;;;1.40;0.57;;;20.90;37.00;;;;;;5037711;28;20025;-49
2021/04/26 08:46:33;;;;;;;3.05;0.65;;;20.90;37.00;;;;;;5038448;28;20025;-46
2021/04/26 08:48:58;;;;;;;1.13;0.40;;;21.00;37.00;;;;;;5038265;28;20040;-49
2021/04/26 08:51:24;;;;;;;2.78;0.52;;;21.00;37.00;;;;;;5037593;28;20033;-49
2021/04/26 08:53:50;;;;;;;1.05;0.43;;;21.00;37.00;;;;;;5037930;28;20360;-50
2021/04/26 08:56:16;;;;;;;2.25;0.40;;;21.00;37.00;;;;;;5037930;28;20033;-46
2021/04/26 08:58:42;;;;;;;0.40;0.30;;;21.00;37.00;;;;;;5037488;28;20033;-51
2021/04/26 09:01:07;;;;;;;1.92;0.57;;;21.10;37.00;;;;;;5037989;28;20029;-46
2021/04/26 09:03:38;;;;;;;2.13;0.50;;;21.10;37.00;;;;;;5038094;28;20033;-50
2021/04/26 09:06:06;;;;;;;0.95;0.50;;;21.10;37.00;;;;;;5037600;28;20032;-48
2021/04/26 09:08:32;;;;;;;1.08;0.40;;;21.20;37.00;;;;;;5037584;28;20025;-48
2021/04/26 09:11:05;;;;;;;1.08;0.45;;;21.10;36.90;;;;;;5020083;28;20036;-46
2021/04/26 09:13:42;;;;;;;1.33;0.52;;;21.20;37.00;;;;;;5037068;28;20040;-47
2021/04/26 09:16:25;;;;;;;1.02;0.50;;;21.20;36.90;;;;;;5037383;28;20029;-49
2021/04/26 09:18:54;;;;;;;1.45;0.50;;;21.20;36.90;;;;;;5037266;28;20022;-50
2021/04/26 09:21:30;;;;;;;0.98;0.50;;;21.30;36.90;;;;;;5037463;28;20072;-50
2021/04/26 09:24:24;;;;;;;1.80;0.50;;;21.30;36.90;;;;;;5037103;28;20460;-49
2021/04/26 09:26:52;;;;;;;2.83;0.60;;;21.30;36.90;;;;;;5037381;28;20107;-46
2021/04/26 09:29:25;;;;;;;3.08;1.00;;;21.30;36.90;;;;;;5037672;28;20136;-45
2021/04/26 09:32:11;;;;;;;1.38;0.38;;;21.30;36.90;;;;;;5037126;28;20040;-49
2021/04/26 09:34:53;;;;;;;3.17;0.80;;;21.40;36.90;;;;;;5019647;28;20444;-46
2021/04/26 09:37:30;;;;;;;1.90;0.60;;;21.40;36.90;;;;;;5036932;28;20064;-48
2021/04/26 09:40:15;;;;;;;1.77;0.52;;;21.40;36.90;;;;;;5037082;28;20045;-51
2021/04/26 09:42:44;;;;;;;3.25;0.50;;;21.50;36.90;;;;;;5036696;28;20026;-49
2021/04/26 09:45:31;;;;;;;1.73;0.50;;;21.50;37.00;;;;;;5036584;28;20060;-50
2021/04/26 09:48:21;;;;;;;1.48;0.80;;;21.50;36.90;;;;;;5036345;28;20108;-48
2021/04/26 09:50:52;;;;;;;1.77;0.60;;;21.50;36.90;;;;;;5036788;28;20018;-48
2021/04/26 09:53:18;;;;;;;1.02;0.60;;;21.50;36.80;;;;;;5036388;28;20476;-48
2021/04/26 09:55:44;;;;;;;3.22;0.88;;;21.60;36.80;;;;;;5036912;28;20072;-45
2021/04/26 09:58:10;;;;;;;3.28;0.88;;;21.60;36.80;;;;;;5036618;28;20467;-46
2021/04/26 10:00:36;;;;;;;1.25;0.60;;;21.60;36.50;;;;;;5036287;28;20095;-49
2021/04/26 10:03:03;;;;;;;2.05;0.70;;;21.60;36.60;;;;;;5036330;28;20418;-50
2021/04/26 10:05:29;;;;;;;1.38;0.60;;;21.60;36.60;;;;;;5036514;28;20088;-47
2021/04/26 10:07:55;;;;;;;0.88;0.50;;;21.60;36.60;;;;;;5036461;28;20025;-50
2021/04/26 10:10:21;;;;;;;0.70;0.50;;;21.70;36.60;;;;;;5036732;28;20407;-49
2021/04/26 10:12:46;;;;;;;2.13;0.45;;;21.70;36.50;;;;;;5036501;28;20025;-50
2021/04/26 10:15:13;;;;;;;1.55;0.55;;;21.70;36.50;;;;;;5036203;28;20021;-46
2021/04/26 10:17:42;;;;;;;2.45;0.85;;;21.70;37.00;;;;;;5036452;28;20034;-49
2021/04/26 10:20:08;;;;;;;1.17;0.82;;;21.70;35.80;;;;;;5036013;28;20329;-50
2021/04/26 10:22:37;;;;;;;2.80;1.05;;;21.70;35.40;;;;;;5036191;28;20040;-49
2021/04/26 10:25:04;;;;;;;2.28;0.93;;;21.70;34.60;;;;;;5035708;28;20464;-49
2021/04/26 10:27:32;;;;;;;2.15;1.30;;;21.70;33.80;;;;;;5035813;28;20371;-48
2021/04/26 10:30:03;;;;;;;2.45;1.40;;;21.60;31.90;;;;;;5036232;28;20021;-45
2021/04/26 10:32:29;;;;;;;2.20;0.90;;;21.50;31.50;;;;;;5036194;28;20056;-48
2021/04/26 10:34:55;;;;;;;2.72;1.00;;;21.40;31.00;;;;;;5035520;28;20065;-47
2021/04/26 10:37:23;;;;;;;4.13;0.80;;;21.40;32.50;;;;;;5035922;28;20026;-53
2021/04/26 10:39:57;;;;;;;3.63;1.23;;;21.40;32.80;;;;;;5035826;28;20087;-51
2021/04/26 10:42:33;;;;;;;2.70;0.90;;;21.40;33.10;;;;;;5036130;28;20021;-49
2021/04/26 10:44:59;;;;;;;2.20;0.73;;;21.40;33.50;;;;;;5035623;28;20026;-49
2021/04/26 10:47:39;;;;;;;1.10;0.52;;;21.40;33.60;;;;;;5035659;28;20108;-47
2021/04/26 10:50:04;;;;;;;1.90;0.80;;;21.50;33.90;;;;;;5035558;28;20091;-46
2021/04/26 10:52:30;;;;;;;2.53;0.90;;;21.50;34.00;;;;;;5035473;28;20388;-46
2021/04/26 10:55:00;;;;;;;2.53;0.80;;;21.50;32.90;;;;;;5035434;28;20412;-50
2021/04/26 10:57:51;;;;;;;2.30;0.98;;;21.50;33.40;;;;;;5035052;28;20100;-49
2021/04/26 11:00:23;;;;;;;1.83;0.75;;;21.60;33.40;;;;;;5035824;28;20029;-46
2021/04/26 11:02:53;;;;;;;1.83;0.73;;;21.60;33.90;;;;;;5035208;28;20032;-47
2021/04/26 11:05:32;;;;;;;2.10;0.70;;;21.60;34.30;;;;;;5035450;28;20436;-46
2021/04/26 11:10:32;;;;;;;1.70;0.70;;;21.60;34.60;;;;;;5035009;28;20034;-52
2021/04/26 11:13:00;;;;;;;0.98;0.80;;;21.60;34.70;;;;;;5035198;28;20029;-52
2021/04/26 11:15:26;;;;;;;2.25;1.20;;;21.70;34.80;;;;;;5035099;28;20030;-50
2021/04/26 11:17:53;;;;;;;1.27;0.57;;;21.70;34.90;;;;;;5035422;28;20025;-48
2021/04/26 11:20:26;;;;;;;1.20;0.68;;;21.70;35.00;;;;;;5034936;28;20021;-53
2021/04/26 11:22:57;;;;;;;1.50;0.60;;;21.70;35.00;;;;;;5034950;28;20032;-52
2021/04/26 11:25:39;;;;;;;1.20;0.50;;;21.70;35.10;;;;;;5034989;28;20017;-50
2021/04/26 11:28:08;;;;;;;6.72;0.90;;;21.70;35.00;;;;;;5034771;28;20383;-48
2021/04/26 11:30:35;;;;;;;17.77;1.30;;;21.80;34.90;;;;;;5034962;28;20025;-51
2021/04/26 11:33:11;;;;;;;3.33;1.35;;;21.70;34.20;;;;;;5034720;28;20018;-47
2021/04/26 11:36:06;;;;;;;4.03;1.00;;;21.70;33.70;;;;;;5034930;28;20038;-48
2021/04/26 11:38:32;;;;;;;3.03;0.82;;;21.70;33.80;;;;;;5034699;28;20482;-49
2021/04/26 11:40:57;;;;;;;1.20;0.63;;;21.70;33.90;;;;;;5035050;28;20037;-51
2021/04/26 11:43:23;;;;;;;2.55;0.85;;;21.60;33.70;;;;;;5034711;28;20071;-54
2021/04/26 11:45:49;;;;;;;4.82;1.10;;;21.70;33.90;;;;;;5034752;28;20030;-51
2021/04/26 11:48:23;;;;;;;4.55;0.90;;;21.70;33.90;;;;;;5034849;28;20394;-51
2021/04/26 11:50:49;;;;;;;3.90;0.95;;;21.70;34.10;;;;;;5034728;28;20025;-52
2021/04/26 11:53:29;;;;;;;4.32;0.80;;;21.70;34.20;;;;;;5035144;28;20021;-51
2021/04/26 11:56:08;;;;;;;7.90;1.25;;;21.70;34.30;;;;;;5034805;28;20033;-52
2021/04/26 11:58:34;;;;;;;4.88;1.10;;;21.70;34.30;;;;;;5034403;28;20436;-50
2021/04/26 12:01:11;;;;;;;5.53;1.83;;;21.70;34.50;;;;;;5034878;28;20229;-63
2021/04/26 12:03:56;;;;;;;5.78;1.40;;;21.70;34.30;;;;;;5034798;28;20033;-47
2021/04/26 12:06:22;;;;;;;3.17;0.88;;;21.70;34.30;;;;;;5034757;28;20079;-50
2021/04/26 12:08:48;;;;;;;3.35;1.00;;;21.70;34.10;;;;;;5034497;28;20101;-53
2021/04/26 12:11:21;;;;;;;5.20;1.08;;;21.70;34.20;;;;;;5039151;28;20037;-48
2021/04/26 12:14:10;;;;;;;2.05;0.60;;;21.70;34.40;;;;;;5038479;28;20460;-49
2021/04/26 12:16:36;;;;;;;3.80;0.70;;;21.70;34.40;;;;;;5038797;28;20057;-50
2021/04/26 12:19:03;;;;;;;5.93;1.17;;;21.70;34.40;;;;;;5037959;28;20175;-50
2021/04/26 12:21:29;;;;;;;1.63;0.75;;;21.70;34.40;;;;;;5038146;28;20360;-52
2021/04/26 12:23:55;;;;;;;2.88;0.70;;;21.80;34.50;;;;;;5038121;28;20448;-50
2021/04/26 12:26:20;;;;;;;3.55;0.80;;;21.80;34.50;;;;;;5038483;28;20040;-49
2021/04/26 12:28:48;;;;;;;3.78;1.02;;;21.80;34.60;;;;;;5038476;28;20056;-49
2021/04/26 12:31:25;;;;;;;6.63;0.52;;;21.80;34.50;;;;;;5038318;28;20021;-48
2021/04/26 12:33:51;;;;;;;2.13;0.60;;;21.80;34.60;;;;;;5038120;28;20467;-50
2021/04/26 12:36:17;;;;;;;1.88;0.65;;;21.80;34.60;;;;;;5038079;28;20382;-47
2021/04/26 12:38:48;;;;;;;2.47;0.70;;;21.80;34.60;;;;;;5038119;28;20102;-48
2021/04/26 12:41:18;;;;;;;1.20;0.80;;;21.80;34.70;;;;;;5038550;28;20036;-50
2021/04/26 12:43:45;;;;;;;2.92;0.80;;;21.80;34.70;;;;;;5038244;28;20060;-46
2021/04/26 12:46:14;;;;;;;3.67;0.75;;;21.90;34.70;;;;;;5037716;28;20036;-49
2021/04/26 12:48:42;;;;;;;1.23;0.68;;;21.90;34.70;;;;;;5038226;28;20083;-47
2021/04/26 12:51:08;;;;;;;0.85;0.40;;;21.90;34.80;;;;;;5037870;28;20026;-51
2021/04/26 12:53:36;;;;;;;1.17;0.60;;;21.90;34.80;;;;;;5037548;28;20087;-49
2021/04/26 12:56:04;;;;;;;3.15;0.80;;;21.90;34.80;;;;;;5037849;28;20098;-48